sensor_id;sensor_type;location;lat;lon;timestamp;P1;durP1;ratioP1;P2;durP2;ratioP2
14939;SDS011;11825;51.898;8.202;2022-12-22T00:05:00;6.07;;;4.17;;
14939;SDS011;11825;51.898;8.202;2022-12-22T00:10:21;6.53;;;4.70;;
14939;SDS011;11825;51.898;8.202;2022-12-22T00:15:41;4.47;;;3.80;;
14939;SDS011;11825;51.898;8.202;2022-12-22T00:21:02;6.03;;;4.47;;
14939;SDS011;11825;51.898;8.202;2022-12-22T00:26:22;6.10;;;4.37;;
14939;SDS011;11825;51.898;8.202;2022-12-22T00:31:43;4.77;;;4.27;;
14939;SDS011;11825;51.898;8.202;2022-12-22T00:37:04;5.03;;;4.63;;
14939;SDS011;11825;51.898;8.202;2022-12-22T00:42:25;4.83;;;4.27;;
14939;SDS011;11825;51.898;8.202;2022-12-22T00:47:45;5.83;;;5.00;;
14939;SDS011;11825;51.898;8.202;2022-12-22T00:53:07;4.97;;;4.37;;
14939;SDS011;11825;51.898;8.202;2022-12-22T00:58:28;4.83;;;4.07;;
14939;SDS011;11825;51.898;8.202;2022-12-22T01:03:49;5.53;;;4.97;;
14939;SDS011;11825;51.898;8.202;2022-12-22T01:09:09;5.67;;;4.60;;
14939;SDS011;11825;51.898;8.202;2022-12-22T01:14:30;4.87;;;4.43;;
14939;SDS011;11825;51.898;8.202;2022-12-22T01:19:51;5.93;;;4.73;;
14939;SDS011;11825;51.898;8.202;2022-12-22T01:25:16;4.77;;;4.37;;
14939;SDS011;11825;51.898;8.202;2022-12-22T01:30:37;5.27;;;4.77;;
14939;SDS011;11825;51.898;8.202;2022-12-22T01:35:58;6.43;;;4.70;;
14939;SDS011;11825;51.898;8.202;2022-12-22T01:41:18;6.03;;;4.60;;
14939;SDS011;11825;51.898;8.202;2022-12-22T01:46:40;6.67;;;4.80;;
14939;SDS011;11825;51.898;8.202;2022-12-22T01:52:02;5.33;;;4.47;;
14939;SDS011;11825;51.898;8.202;2022-12-22T01:57:23;5.90;;;4.93;;
14939;SDS011;11825;51.898;8.202;2022-12-22T02:02:44;5.20;;;4.47;;
14939;SDS011;11825;51.898;8.202;2022-12-22T02:08:10;6.23;;;4.77;;
14939;SDS011;11825;51.898;8.202;2022-12-22T02:24:48;6.67;;;5.77;;
14939;SDS011;11825;51.898;8.202;2022-12-22T02:30:11;6.80;;;5.80;;
14939;SDS011;11825;51.898;8.202;2022-12-22T02:35:35;7.40;;;5.57;;
14939;SDS011;11825;51.898;8.202;2022-12-22T02:46:33;10.57;;;6.30;;
14939;SDS011;11825;51.898;8.202;2022-12-22T02:52:09;8.97;;;5.83;;
14939;SDS011;11825;51.898;8.202;2022-12-22T02:57:36;5.90;;;5.23;;
14939;SDS011;11825;51.898;8.202;2022-12-22T03:02:56;6.93;;;5.77;;
14939;SDS011;11825;51.898;8.202;2022-12-22T03:08:17;6.53;;;5.57;;
14939;SDS011;11825;51.898;8.202;2022-12-22T03:13:37;7.57;;;5.63;;
14939;SDS011;11825;51.898;8.202;2022-12-22T03:18:58;7.07;;;5.23;;
14939;SDS011;11825;51.898;8.202;2022-12-22T03:24:18;8.13;;;6.67;;
14939;SDS011;11825;51.898;8.202;2022-12-22T03:29:38;7.40;;;5.80;;
14939;SDS011;11825;51.898;8.202;2022-12-22T03:34:40;7.27;;;5.47;;
14939;SDS011;11825;51.898;8.202;2022-12-22T03:39:41;7.00;;;5.67;;
14939;SDS011;11825;51.898;8.202;2022-12-22T03:44:43;7.80;;;6.87;;
14939;SDS011;11825;51.898;8.202;2022-12-22T03:50:04;6.40;;;5.67;;
14939;SDS011;11825;51.898;8.202;2022-12-22T03:55:06;7.00;;;5.97;;
14939;SDS011;11825;51.898;8.202;2022-12-22T04:00:11;10.73;;;7.43;;
14939;SDS011;11825;51.898;8.202;2022-12-22T04:05:13;12.07;;;6.27;;
14939;SDS011;11825;51.898;8.202;2022-12-22T04:10:15;7.63;;;6.33;;
14939;SDS011;11825;51.898;8.202;2022-12-22T04:15:35;9.03;;;6.67;;
14939;SDS011;11825;51.898;8.202;2022-12-22T04:20:37;10.43;;;8.03;;
14939;SDS011;11825;51.898;8.202;2022-12-22T04:25:39;15.37;;;8.93;;
14939;SDS011;11825;51.898;8.202;2022-12-22T04:30:41;70.33;;;15.43;;
14939;SDS011;11825;51.898;8.202;2022-12-22T04:35:43;13.77;;;7.50;;
14939;SDS011;11825;51.898;8.202;2022-12-22T04:40:44;18.63;;;9.47;;
14939;SDS011;11825;51.898;8.202;2022-12-22T04:45:46;15.97;;;10.43;;
14939;SDS011;11825;51.898;8.202;2022-12-22T04:50:53;20.37;;;10.30;;
14939;SDS011;11825;51.898;8.202;2022-12-22T04:55:57;15.73;;;9.90;;
14939;SDS011;11825;51.898;8.202;2022-12-22T05:01:07;15.60;;;9.50;;
14939;SDS011;11825;51.898;8.202;2022-12-22T05:06:11;20.33;;;11.80;;
14939;SDS011;11825;51.898;8.202;2022-12-22T05:11:13;19.13;;;12.07;;
14939;SDS011;11825;51.898;8.202;2022-12-22T05:16:15;20.53;;;12.10;;
14939;SDS011;11825;51.898;8.202;2022-12-22T05:21:18;20.80;;;13.30;;
14939;SDS011;11825;51.898;8.202;2022-12-22T05:26:21;23.27;;;12.63;;
14939;SDS011;11825;51.898;8.202;2022-12-22T05:31:23;21.60;;;12.27;;
14939;SDS011;11825;51.898;8.202;2022-12-22T05:36:25;19.80;;;11.27;;
14939;SDS011;11825;51.898;8.202;2022-12-22T05:41:27;27.97;;;13.93;;
14939;SDS011;11825;51.898;8.202;2022-12-22T05:46:29;21.77;;;12.43;;
14939;SDS011;11825;51.898;8.202;2022-12-22T05:51:30;28.97;;;14.57;;
14939;SDS011;11825;51.898;8.202;2022-12-22T05:56:32;26.77;;;14.93;;
14939;SDS011;11825;51.898;8.202;2022-12-22T06:01:34;22.17;;;12.80;;
14939;SDS011;11825;51.898;8.202;2022-12-22T06:06:36;24.30;;;13.97;;
14939;SDS011;11825;51.898;8.202;2022-12-22T06:11:38;22.03;;;12.43;;
14939;SDS011;11825;51.898;8.202;2022-12-22T06:16:40;18.57;;;11.97;;
14939;SDS011;11825;51.898;8.202;2022-12-22T06:21:41;15.70;;;11.40;;
14939;SDS011;11825;51.898;8.202;2022-12-22T06:26:43;35.07;;;14.03;;
14939;SDS011;11825;51.898;8.202;2022-12-22T06:31:45;16.07;;;10.27;;
14939;SDS011;11825;51.898;8.202;2022-12-22T06:36:47;18.90;;;11.17;;
14939;SDS011;11825;51.898;8.202;2022-12-22T06:41:48;19.80;;;10.70;;
14939;SDS011;11825;51.898;8.202;2022-12-22T06:47:09;22.30;;;11.43;;
14939;SDS011;11825;51.898;8.202;2022-12-22T06:52:11;17.87;;;10.83;;
14939;SDS011;11825;51.898;8.202;2022-12-22T06:57:12;38.97;;;25.53;;
14939;SDS011;11825;51.898;8.202;2022-12-22T07:02:14;46.87;;;25.20;;
14939;SDS011;11825;51.898;8.202;2022-12-22T07:12:47;65.03;;;21.90;;
14939;SDS011;11825;51.898;8.202;2022-12-22T07:17:51;36.20;;;21.57;;
14939;SDS011;11825;51.898;8.202;2022-12-22T07:22:53;38.00;;;25.23;;
14939;SDS011;11825;51.898;8.202;2022-12-22T07:27:55;44.80;;;21.33;;
14939;SDS011;11825;51.898;8.202;2022-12-22T07:32:57;33.33;;;18.03;;
14939;SDS011;11825;51.898;8.202;2022-12-22T07:37:59;31.93;;;16.37;;
14939;SDS011;11825;51.898;8.202;2022-12-22T07:43:01;24.17;;;13.03;;
14939;SDS011;11825;51.898;8.202;2022-12-22T07:48:03;58.30;;;17.50;;
14939;SDS011;11825;51.898;8.202;2022-12-22T07:53:28;26.23;;;14.13;;
14939;SDS011;11825;51.898;8.202;2022-12-22T07:58:30;26.73;;;12.37;;
14939;SDS011;11825;51.898;8.202;2022-12-22T08:03:31;21.17;;;12.43;;
14939;SDS011;11825;51.898;8.202;2022-12-22T08:08:33;31.13;;;15.33;;
14939;SDS011;11825;51.898;8.202;2022-12-22T08:13:35;35.37;;;14.90;;
14939;SDS011;11825;51.898;8.202;2022-12-22T08:18:37;26.87;;;15.07;;
14939;SDS011;11825;51.898;8.202;2022-12-22T08:23:39;25.60;;;14.70;;
14939;SDS011;11825;51.898;8.202;2022-12-22T08:29:03;39.90;;;15.03;;
14939;SDS011;11825;51.898;8.202;2022-12-22T08:34:06;30.23;;;15.00;;
14939;SDS011;11825;51.898;8.202;2022-12-22T08:39:09;32.00;;;15.47;;
14939;SDS011;11825;51.898;8.202;2022-12-22T08:44:11;34.90;;;17.73;;
14939;SDS011;11825;51.898;8.202;2022-12-22T08:49:13;38.53;;;20.20;;
14939;SDS011;11825;51.898;8.202;2022-12-22T08:54:18;42.50;;;21.90;;
14939;SDS011;11825;51.898;8.202;2022-12-22T08:59:20;36.97;;;18.93;;
14939;SDS011;11825;51.898;8.202;2022-12-22T09:04:22;45.00;;;21.83;;
14939;SDS011;11825;51.898;8.202;2022-12-22T09:09:25;43.37;;;20.87;;
14939;SDS011;11825;51.898;8.202;2022-12-22T09:14:28;54.33;;;25.60;;
14939;SDS011;11825;51.898;8.202;2022-12-22T09:19:30;62.13;;;27.10;;
14939;SDS011;11825;51.898;8.202;2022-12-22T09:24:32;60.47;;;26.70;;
14939;SDS011;11825;51.898;8.202;2022-12-22T09:29:35;77.93;;;27.80;;
14939;SDS011;11825;51.898;8.202;2022-12-22T09:34:37;82.13;;;25.70;;
14939;SDS011;11825;51.898;8.202;2022-12-22T09:39:40;71.07;;;28.60;;
14939;SDS011;11825;51.898;8.202;2022-12-22T09:44:43;62.77;;;21.73;;
14939;SDS011;11825;51.898;8.202;2022-12-22T09:49:48;59.53;;;21.70;;
14939;SDS011;11825;51.898;8.202;2022-12-22T09:54:50;59.83;;;20.53;;
14939;SDS011;11825;51.898;8.202;2022-12-22T09:59:51;66.90;;;20.63;;
14939;SDS011;11825;51.898;8.202;2022-12-22T10:05:05;72.30;;;22.97;;
14939;SDS011;11825;51.898;8.202;2022-12-22T10:10:16;65.53;;;21.30;;
14939;SDS011;11825;51.898;8.202;2022-12-22T10:15:37;58.47;;;22.57;;
14939;SDS011;11825;51.898;8.202;2022-12-22T10:20:44;52.03;;;19.53;;
14939;SDS011;11825;51.898;8.202;2022-12-22T10:26:25;48.43;;;18.57;;
14939;SDS011;11825;51.898;8.202;2022-12-22T10:31:32;61.43;;;18.30;;
14939;SDS011;11825;51.898;8.202;2022-12-22T10:36:35;60.97;;;20.97;;
14939;SDS011;11825;51.898;8.202;2022-12-22T10:41:42;51.43;;;18.50;;
14939;SDS011;11825;51.898;8.202;2022-12-22T10:46:49;56.83;;;20.87;;
14939;SDS011;11825;51.898;8.202;2022-12-22T10:51:56;39.50;;;18.17;;
14939;SDS011;11825;51.898;8.202;2022-12-22T11:02:37;44.20;;;17.90;;
14939;SDS011;11825;51.898;8.202;2022-12-22T11:07:54;44.80;;;18.00;;
14939;SDS011;11825;51.898;8.202;2022-12-22T11:23:27;40.43;;;17.27;;
14939;SDS011;11825;51.898;8.202;2022-12-22T11:28:42;38.30;;;17.13;;
14939;SDS011;11825;51.898;8.202;2022-12-22T11:39:20;39.63;;;17.60;;
14939;SDS011;11825;51.898;8.202;2022-12-22T11:50:32;33.23;;;14.97;;
14939;SDS011;11825;51.898;8.202;2022-12-22T11:56:11;28.17;;;14.93;;
14939;SDS011;11825;51.898;8.202;2022-12-22T12:01:34;26.57;;;16.10;;
14939;SDS011;11825;51.898;8.202;2022-12-22T12:07:07;23.80;;;14.93;;
14939;SDS011;11825;51.898;8.202;2022-12-22T12:18:38;20.43;;;12.90;;
14939;SDS011;11825;51.898;8.202;2022-12-22T12:23:46;17.53;;;13.17;;
14939;SDS011;11825;51.898;8.202;2022-12-22T12:34:19;15.67;;;11.57;;
14939;SDS011;11825;51.898;8.202;2022-12-22T12:44:31;14.50;;;9.20;;
14939;SDS011;11825;51.898;8.202;2022-12-22T12:54:42;13.73;;;11.10;;
14939;SDS011;11825;51.898;8.202;2022-12-22T12:59:44;14.23;;;10.63;;
14939;SDS011;11825;51.898;8.202;2022-12-22T13:10:19;15.27;;;10.67;;
14939;SDS011;11825;51.898;8.202;2022-12-22T13:15:38;14.80;;;12.47;;
14939;SDS011;11825;51.898;8.202;2022-12-22T13:20:42;13.23;;;11.70;;
14939;SDS011;11825;51.898;8.202;2022-12-22T13:25:49;16.07;;;13.30;;
14939;SDS011;11825;51.898;8.202;2022-12-22T13:36:24;16.17;;;10.63;;
14939;SDS011;11825;51.898;8.202;2022-12-22T13:41:27;14.00;;;10.70;;
14939;SDS011;11825;51.898;8.202;2022-12-22T13:46:31;18.67;;;11.90;;
14939;SDS011;11825;51.898;8.202;2022-12-22T13:51:35;14.93;;;11.93;;
14939;SDS011;11825;51.898;8.202;2022-12-22T14:01:49;19.60;;;12.57;;
14939;SDS011;11825;51.898;8.202;2022-12-22T14:06:51;15.23;;;11.63;;
14939;SDS011;11825;51.898;8.202;2022-12-22T14:17:27;13.83;;;10.70;;
14939;SDS011;11825;51.898;8.202;2022-12-22T14:22:35;12.83;;;10.57;;
14939;SDS011;11825;51.898;8.202;2022-12-22T14:27:40;13.80;;;8.97;;
14939;SDS011;11825;51.898;8.202;2022-12-22T14:32:54;21.00;;;10.90;;
14939;SDS011;11825;51.898;8.202;2022-12-22T14:48:26;16.60;;;11.07;;
14939;SDS011;11825;51.898;8.202;2022-12-22T14:53:38;17.97;;;13.67;;
14939;SDS011;11825;51.898;8.202;2022-12-22T14:58:45;15.50;;;11.53;;
14939;SDS011;11825;51.898;8.202;2022-12-22T15:14:09;15.03;;;9.80;;
14939;SDS011;11825;51.898;8.202;2022-12-22T15:19:14;16.10;;;10.57;;
14939;SDS011;11825;51.898;8.202;2022-12-22T15:24:20;12.57;;;10.30;;
14939;SDS011;11825;51.898;8.202;2022-12-22T15:29:23;15.37;;;10.50;;
14939;SDS011;11825;51.898;8.202;2022-12-22T15:34:29;13.33;;;10.57;;
14939;SDS011;11825;51.898;8.202;2022-12-22T15:39:34;16.30;;;11.13;;
14939;SDS011;11825;51.898;8.202;2022-12-22T15:44:41;14.53;;;11.17;;
14939;SDS011;11825;51.898;8.202;2022-12-22T16:00:55;20.10;;;14.43;;
14939;SDS011;11825;51.898;8.202;2022-12-22T16:17:39;18.47;;;14.00;;
14939;SDS011;11825;51.898;8.202;2022-12-22T16:22:47;19.37;;;14.43;;
14939;SDS011;11825;51.898;8.202;2022-12-22T16:27:53;15.97;;;11.43;;
14939;SDS011;11825;51.898;8.202;2022-12-22T16:32:56;17.33;;;13.60;;
14939;SDS011;11825;51.898;8.202;2022-12-22T16:37:58;19.77;;;14.87;;
14939;SDS011;11825;51.898;8.202;2022-12-22T16:43:02;23.47;;;15.43;;
14939;SDS011;11825;51.898;8.202;2022-12-22T16:53:39;22.30;;;17.43;;
14939;SDS011;11825;51.898;8.202;2022-12-22T16:58:41;24.83;;;16.93;;
14939;SDS011;11825;51.898;8.202;2022-12-22T17:03:43;22.43;;;17.30;;
14939;SDS011;11825;51.898;8.202;2022-12-22T17:08:44;24.63;;;18.00;;
14939;SDS011;11825;51.898;8.202;2022-12-22T17:13:47;27.33;;;17.77;;
14939;SDS011;11825;51.898;8.202;2022-12-22T17:19:02;22.97;;;17.30;;
14939;SDS011;11825;51.898;8.202;2022-12-22T17:24:12;25.83;;;18.30;;
14939;SDS011;11825;51.898;8.202;2022-12-22T17:29:17;30.37;;;18.30;;
14939;SDS011;11825;51.898;8.202;2022-12-22T17:34:21;20.97;;;16.40;;
14939;SDS011;11825;51.898;8.202;2022-12-22T17:39:26;43.43;;;31.03;;
14939;SDS011;11825;51.898;8.202;2022-12-22T17:44:28;25.37;;;19.03;;
14939;SDS011;11825;51.898;8.202;2022-12-22T17:56:22;29.83;;;18.10;;
14939;SDS011;11825;51.898;8.202;2022-12-22T18:01:34;23.70;;;17.63;;
14939;SDS011;11825;51.898;8.202;2022-12-22T18:07:30;24.27;;;17.97;;
14939;SDS011;11825;51.898;8.202;2022-12-22T18:12:44;26.27;;;18.03;;
14939;SDS011;11825;51.898;8.202;2022-12-22T18:17:52;21.60;;;17.07;;
14939;SDS011;11825;51.898;8.202;2022-12-22T18:22:58;27.67;;;18.30;;
14939;SDS011;11825;51.898;8.202;2022-12-22T18:34:09;23.73;;;17.90;;
14939;SDS011;11825;51.898;8.202;2022-12-22T18:39:17;27.27;;;18.97;;
14939;SDS011;11825;51.898;8.202;2022-12-22T18:44:39;22.57;;;17.53;;
14939;SDS011;11825;51.898;8.202;2022-12-22T18:49:47;22.37;;;19.07;;
14939;SDS011;11825;51.898;8.202;2022-12-22T18:54:49;21.83;;;17.30;;
14939;SDS011;11825;51.898;8.202;2022-12-22T18:59:51;29.80;;;18.93;;
14939;SDS011;11825;51.898;8.202;2022-12-22T19:04:53;29.00;;;19.63;;
14939;SDS011;11825;51.898;8.202;2022-12-22T19:09:57;27.77;;;18.80;;
14939;SDS011;11825;51.898;8.202;2022-12-22T19:15:02;29.53;;;20.13;;
14939;SDS011;11825;51.898;8.202;2022-12-22T19:20:13;32.93;;;19.87;;
14939;SDS011;11825;51.898;8.202;2022-12-22T19:25:23;26.37;;;19.10;;
14939;SDS011;11825;51.898;8.202;2022-12-22T19:30:32;37.87;;;25.33;;
14939;SDS011;11825;51.898;8.202;2022-12-22T19:35:40;31.00;;;21.40;;
14939;SDS011;11825;51.898;8.202;2022-12-22T19:46:13;46.80;;;32.00;;
14939;SDS011;11825;51.898;8.202;2022-12-22T19:51:20;32.73;;;20.27;;
14939;SDS011;11825;51.898;8.202;2022-12-22T20:01:54;33.17;;;20.30;;
14939;SDS011;11825;51.898;8.202;2022-12-22T20:07:01;28.13;;;18.50;;
14939;SDS011;11825;51.898;8.202;2022-12-22T20:12:03;27.33;;;18.63;;
14939;SDS011;11825;51.898;8.202;2022-12-22T20:17:07;28.17;;;17.87;;
14939;SDS011;11825;51.898;8.202;2022-12-22T20:22:12;26.03;;;17.80;;
14939;SDS011;11825;51.898;8.202;2022-12-22T20:27:32;27.87;;;18.27;;
14939;SDS011;11825;51.898;8.202;2022-12-22T20:32:34;30.37;;;18.90;;
14939;SDS011;11825;51.898;8.202;2022-12-22T20:37:36;29.50;;;18.47;;
14939;SDS011;11825;51.898;8.202;2022-12-22T20:42:38;28.70;;;17.57;;
14939;SDS011;11825;51.898;8.202;2022-12-22T20:47:40;22.07;;;15.37;;
14939;SDS011;11825;51.898;8.202;2022-12-22T20:52:42;26.30;;;16.20;;
14939;SDS011;11825;51.898;8.202;2022-12-22T20:57:44;25.90;;;14.67;;
14939;SDS011;11825;51.898;8.202;2022-12-22T21:02:46;23.60;;;15.30;;
14939;SDS011;11825;51.898;8.202;2022-12-22T21:07:48;21.57;;;12.97;;
14939;SDS011;11825;51.898;8.202;2022-12-22T21:18:17;22.80;;;9.37;;
14939;SDS011;11825;51.898;8.202;2022-12-22T21:23:21;14.93;;;7.53;;
14939;SDS011;11825;51.898;8.202;2022-12-22T21:33:37;15.93;;;8.27;;
14939;SDS011;11825;51.898;8.202;2022-12-22T21:38:43;12.33;;;7.53;;
14939;SDS011;11825;51.898;8.202;2022-12-22T21:43:45;15.70;;;7.93;;
14939;SDS011;11825;51.898;8.202;2022-12-22T21:48:47;16.33;;;7.87;;
14939;SDS011;11825;51.898;8.202;2022-12-22T21:53:52;11.57;;;6.80;;
14939;SDS011;11825;51.898;8.202;2022-12-22T21:58:53;12.67;;;6.93;;
14939;SDS011;11825;51.898;8.202;2022-12-22T22:04:03;15.43;;;7.80;;
14939;SDS011;11825;51.898;8.202;2022-12-22T22:09:18;10.27;;;7.60;;
14939;SDS011;11825;51.898;8.202;2022-12-22T22:14:22;13.13;;;8.00;;
14939;SDS011;11825;51.898;8.202;2022-12-22T22:19:25;17.23;;;8.43;;
14939;SDS011;11825;51.898;8.202;2022-12-22T22:24:29;14.03;;;9.33;;
14939;SDS011;11825;51.898;8.202;2022-12-22T22:29:39;15.83;;;8.53;;
14939;SDS011;11825;51.898;8.202;2022-12-22T22:34:55;9.87;;;7.00;;
14939;SDS011;11825;51.898;8.202;2022-12-22T22:40:20;10.20;;;6.67;;
14939;SDS011;11825;51.898;8.202;2022-12-22T22:45:23;10.83;;;6.53;;
14939;SDS011;11825;51.898;8.202;2022-12-22T22:50:25;9.63;;;6.37;;
14939;SDS011;11825;51.898;8.202;2022-12-22T22:55:26;9.10;;;6.70;;
14939;SDS011;11825;51.898;8.202;2022-12-22T23:00:36;10.17;;;6.00;;
14939;SDS011;11825;51.898;8.202;2022-12-22T23:05:38;7.53;;;6.00;;
14939;SDS011;11825;51.898;8.202;2022-12-22T23:10:45;9.80;;;6.80;;
14939;SDS011;11825;51.898;8.202;2022-12-22T23:15:55;13.37;;;8.00;;
14939;SDS011;11825;51.898;8.202;2022-12-22T23:20:59;16.30;;;9.80;;
14939;SDS011;11825;51.898;8.202;2022-12-22T23:26:01;12.40;;;8.50;;
14939;SDS011;11825;51.898;8.202;2022-12-22T23:31:03;16.90;;;11.63;;
14939;SDS011;11825;51.898;8.202;2022-12-22T23:36:05;21.80;;;12.37;;
14939;SDS011;11825;51.898;8.202;2022-12-22T23:41:11;25.50;;;14.00;;
14939;SDS011;11825;51.898;8.202;2022-12-22T23:46:14;29.90;;;16.70;;
14939;SDS011;11825;51.898;8.202;2022-12-22T23:51:17;27.87;;;17.33;;
14939;SDS011;11825;51.898;8.202;2022-12-22T23:56:19;29.27;;;18.33;;
